createdAt,value
2022-08-29T00:00:18.807Z,17.06
2022-08-29T00:02:54.917Z,16.86
2022-08-29T00:05:24.917Z,16.75
2022-08-29T00:07:52.379Z,16.81
2022-08-29T00:10:18.990Z,16.64
2022-08-29T00:12:45.577Z,16.50
2022-08-29T00:15:14.290Z,16.55
2022-08-29T00:17:41.519Z,16.58
2022-08-29T00:20:11.248Z,16.43
2022-08-29T00:22:37.677Z,16.51
2022-08-29T00:25:06.151Z,16.42
2022-08-29T00:27:34.566Z,16.57
2022-08-29T00:30:01.459Z,16.39
2022-08-29T00:32:34.803Z,16.22
2022-08-29T00:35:02.646Z,16.31
2022-08-29T00:37:29.053Z,16.08
2022-08-29T00:39:55.601Z,16.00
2022-08-29T00:42:23.241Z,16.03
2022-08-29T00:44:49.756Z,15.78
2022-08-29T00:47:20.322Z,16.05
2022-08-29T00:49:51.009Z,16.03
2022-08-29T00:52:32.446Z,15.83
2022-08-29T00:55:01.443Z,15.65
2022-08-29T00:57:31.543Z,15.42
2022-08-29T00:59:59.724Z,15.62
2022-08-29T01:02:26.495Z,15.55
2022-08-29T01:04:54.085Z,15.51
2022-08-29T01:07:20.671Z,15.52
2022-08-29T01:09:47.417Z,15.38
2022-08-29T01:12:18.350Z,15.43
2022-08-29T01:15:01.949Z,15.30
2022-08-29T01:17:33.424Z,15.00
2022-08-29T01:20:09.807Z,15.04
2022-08-29T01:22:57.767Z,15.11
2022-08-29T01:25:27.335Z,15.27
2022-08-29T01:28:06.217Z,15.25
2022-08-29T01:30:32.721Z,15.03
2022-08-29T01:33:00.808Z,15.11
2022-08-29T01:35:28.047Z,14.92
2022-08-29T01:37:54.935Z,14.87
2022-08-29T01:40:21.779Z,14.87
2022-08-29T01:42:48.313Z,14.74
2022-08-29T01:45:14.846Z,14.65
2022-08-29T01:47:41.370Z,14.67
2022-08-29T01:50:14.403Z,14.68
2022-08-29T01:52:42.364Z,14.55
2022-08-29T01:55:09.019Z,14.72
2022-08-29T01:57:38.734Z,14.69
2022-08-29T02:00:08.055Z,14.66
2022-08-29T02:02:34.860Z,14.79
2022-08-29T02:05:01.558Z,14.79
2022-08-29T02:07:29.402Z,14.70
2022-08-29T02:09:56.090Z,14.44
2022-08-29T02:12:22.579Z,14.52
2022-08-29T02:14:50.707Z,14.57
2022-08-29T02:17:17.170Z,14.50
2022-08-29T02:19:44.070Z,14.35
2022-08-29T02:22:11.030Z,14.32
2022-08-29T02:24:37.870Z,14.21
2022-08-29T02:27:04.655Z,14.14
2022-08-29T02:29:37.682Z,14.27
2022-08-29T02:32:11.880Z,14.23
2022-08-29T02:34:38.484Z,14.06
2022-08-29T02:37:05.949Z,13.98
2022-08-29T02:39:32.515Z,14.01
2022-08-29T02:41:58.909Z,13.80
2022-08-29T02:44:25.303Z,14.03
2022-08-29T02:46:51.841Z,14.00
2022-08-29T02:49:18.416Z,13.84
2022-08-29T02:51:45.432Z,13.93
2022-08-29T02:54:12.667Z,13.91
2022-08-29T02:56:40.985Z,13.92
2022-08-29T02:59:08.382Z,13.77
2022-08-29T03:01:38.487Z,13.78
2022-08-29T03:04:05.619Z,13.80
2022-08-29T03:06:32.333Z,13.68
2022-08-29T03:08:58.885Z,13.81
2022-08-29T03:11:25.429Z,13.75
2022-08-29T03:13:51.830Z,13.76
2022-08-29T03:16:24.057Z,13.76
2022-08-29T03:18:50.558Z,13.87
2022-08-29T03:21:22.638Z,13.95
2022-08-29T03:23:50.063Z,13.93
2022-08-29T03:26:16.825Z,13.88
2022-08-29T03:28:43.517Z,13.83
2022-08-29T03:31:10.609Z,13.96
2022-08-29T03:33:37.571Z,14.06
2022-08-29T03:36:07.842Z,14.02
2022-08-29T03:38:40.430Z,14.16
2022-08-29T03:41:07.657Z,14.14
2022-08-29T03:43:34.361Z,14.13
2022-08-29T03:46:00.864Z,14.14
2022-08-29T03:48:27.329Z,14.29
2022-08-29T03:50:56.455Z,14.19
2022-08-29T03:53:23.319Z,14.07
2022-08-29T03:55:49.750Z,14.15
2022-08-29T03:58:16.301Z,14.16
2022-08-29T04:00:42.913Z,14.16
2022-08-29T04:03:09.456Z,14.37
2022-08-29T04:05:36.904Z,14.10
2022-08-29T04:08:03.604Z,14.20
2022-08-29T04:10:34.204Z,14.20
2022-08-29T04:13:01.503Z,14.08
2022-08-29T04:15:29.019Z,14.11
2022-08-29T04:17:57.779Z,14.14
2022-08-29T04:20:27.938Z,14.13
2022-08-29T04:22:56.154Z,14.19
2022-08-29T04:25:25.017Z,14.17
2022-08-29T04:27:51.737Z,14.19
2022-08-29T04:30:21.594Z,15.00
2022-08-29T04:32:48.040Z,14.52
2022-08-29T04:35:16.019Z,14.32
2022-08-29T04:37:47.087Z,14.33
2022-08-29T04:40:17.862Z,14.32
2022-08-29T04:42:47.168Z,14.33
2022-08-29T04:45:17.823Z,14.29
2022-08-29T04:47:45.824Z,14.25
2022-08-29T04:50:15.475Z,14.18
2022-08-29T04:52:43.750Z,14.22
2022-08-29T04:55:11.426Z,14.23
2022-08-29T04:57:38.693Z,14.26
2022-08-29T05:00:11.789Z,14.37
2022-08-29T05:02:39.881Z,14.21
2022-08-29T05:05:08.010Z,14.14
2022-08-29T05:07:34.530Z,14.55
2022-08-29T05:10:09.278Z,14.52
2022-08-29T05:12:37.607Z,14.77
2022-08-29T05:15:06.069Z,14.93
2022-08-29T05:17:32.698Z,15.26
2022-08-29T05:19:59.619Z,15.26
2022-08-29T05:22:26.341Z,15.31
2022-08-29T05:24:53.461Z,15.85
2022-08-29T05:27:22.739Z,16.30
2022-08-29T05:29:51.341Z,16.71
2022-08-29T05:32:19.575Z,17.14
2022-08-29T05:34:47.710Z,17.58
2022-08-29T05:37:16.613Z,17.81
2022-08-29T05:39:43.228Z,17.91
2022-08-29T05:42:11.947Z,17.79
2022-08-29T05:44:39.973Z,18.40
2022-08-29T05:47:08.826Z,18.49
2022-08-29T05:49:37.284Z,18.71
2022-08-29T05:52:04.537Z,19.00
2022-08-29T05:54:34.352Z,19.18
2022-08-29T05:57:00.957Z,19.14
2022-08-29T05:59:27.448Z,18.88
2022-08-29T06:01:53.852Z,18.85
2022-08-29T06:04:20.387Z,18.87
2022-08-29T06:06:46.783Z,18.56
2022-08-29T06:09:13.678Z,18.53
2022-08-29T06:11:40.135Z,18.78
2022-08-29T06:14:06.965Z,18.60
2022-08-29T06:16:33.652Z,18.72
2022-08-29T06:19:00.378Z,18.60
2022-08-29T06:21:26.890Z,18.76
2022-08-29T06:23:53.359Z,18.69
2022-08-29T06:26:19.962Z,18.74
2022-08-29T06:28:47.319Z,19.12
2022-08-29T06:31:27.044Z,19.09
2022-08-29T06:33:55.531Z,18.96
2022-08-29T06:36:22.893Z,19.24
2022-08-29T06:38:49.351Z,18.98
2022-08-29T06:41:17.650Z,19.03
2022-08-29T06:43:44.544Z,19.74
2022-08-29T06:46:20.479Z,19.37
2022-08-29T06:48:46.923Z,19.57
2022-08-29T06:51:13.496Z,19.93
2022-08-29T06:53:40.131Z,19.89
2022-08-29T06:56:11.098Z,20.35
2022-08-29T06:58:38.197Z,20.63
2022-08-29T07:01:08.291Z,20.38
2022-08-29T07:03:35.417Z,20.06
2022-08-29T07:06:01.876Z,20.68
2022-08-29T07:08:28.356Z,20.29
2022-08-29T07:10:54.772Z,20.43
2022-08-29T07:13:21.246Z,20.47
2022-08-29T07:15:47.696Z,20.24
2022-08-29T07:18:14.333Z,20.39
2022-08-29T07:20:40.916Z,20.52
2022-08-29T07:23:08.852Z,20.54
2022-08-29T07:25:36.703Z,20.40
2022-08-29T07:28:04.188Z,20.68
2022-08-29T07:30:30.797Z,20.89
2022-08-29T07:32:57.232Z,20.93
2022-08-29T07:35:30.465Z,20.90
2022-08-29T07:38:03.746Z,21.14
2022-08-29T07:40:30.453Z,21.25
2022-08-29T07:42:56.967Z,21.31
2022-08-29T07:45:23.523Z,21.32
2022-08-29T07:47:49.936Z,21.17
2022-08-29T07:50:16.982Z,21.14
2022-08-29T07:52:43.575Z,21.25
2022-08-29T07:55:10.205Z,21.43
2022-08-29T07:57:39.673Z,21.38
2022-08-29T08:00:12.213Z,21.37
2022-08-29T08:02:38.962Z,21.53
2022-08-29T08:05:06.951Z,21.56
2022-08-29T08:07:34.959Z,21.57
2022-08-29T08:10:02.419Z,21.75
2022-08-29T08:12:29.298Z,21.69
2022-08-29T08:14:57.010Z,22.05
2022-08-29T08:17:23.957Z,21.88
2022-08-29T08:19:50.369Z,22.03
2022-08-29T08:22:16.787Z,22.19
2022-08-29T08:24:43.246Z,22.39
2022-08-29T08:27:09.747Z,22.52
2022-08-29T08:29:36.169Z,22.47
2022-08-29T08:32:02.778Z,22.69
2022-08-29T08:34:30.189Z,23.07
2022-08-29T08:36:56.663Z,22.68
2022-08-29T08:39:23.119Z,22.87
2022-08-29T08:42:15.533Z,22.68
2022-08-29T08:44:51.412Z,22.91
2022-08-29T08:47:33.374Z,22.75
2022-08-29T08:50:20.786Z,22.62
2022-08-29T08:52:58.697Z,22.22
2022-08-29T08:55:45.009Z,22.39
2022-08-29T08:58:17.416Z,22.52
2022-08-29T09:00:54.185Z,22.70
2022-08-29T09:03:43.130Z,22.73
2022-08-29T09:06:18.059Z,23.06
2022-08-29T09:08:52.587Z,23.00
2022-08-29T09:11:34.834Z,23.05
2022-08-29T09:14:18.121Z,23.20
2022-08-29T09:16:50.559Z,22.93
2022-08-29T09:19:17.577Z,23.39
2022-08-29T09:21:51.920Z,23.35
2022-08-29T09:24:35.940Z,23.41
2022-08-29T09:27:02.750Z,23.43
2022-08-29T09:29:30.801Z,23.82
2022-08-29T09:32:10.283Z,23.81
2022-08-29T09:35:07.339Z,23.68
2022-08-29T09:37:33.679Z,23.96
2022-08-29T09:40:10.682Z,23.83
2022-08-29T09:42:41.452Z,23.78
2022-08-29T09:45:20.868Z,24.06
2022-08-29T09:47:47.319Z,24.33
2022-08-29T09:50:21.707Z,24.52
2022-08-29T09:52:54.362Z,23.82
2022-08-29T09:55:42.435Z,23.79
2022-08-29T09:58:19.061Z,24.02
2022-08-29T10:00:57.468Z,23.84
2022-08-29T10:03:25.305Z,24.09
2022-08-29T10:06:15.650Z,24.33
2022-08-29T10:08:54.787Z,23.87
2022-08-29T10:11:27.752Z,24.40
2022-08-29T10:13:58.033Z,24.50
2022-08-29T10:16:27.180Z,24.40
2022-08-29T10:19:02.152Z,24.48
2022-08-29T10:21:47.124Z,24.64
2022-08-29T10:24:30.568Z,24.80
2022-08-29T10:27:04.693Z,24.87
2022-08-29T10:29:40.068Z,25.07
2022-08-29T10:32:34.536Z,25.21
2022-08-29T10:35:06.546Z,25.02
2022-08-29T10:37:42.938Z,25.14
2022-08-29T10:40:26.821Z,25.03
2022-08-29T10:43:14.842Z,25.28
2022-08-29T10:46:12.898Z,25.13
2022-08-29T10:48:55.105Z,25.22
2022-08-29T10:52:06.493Z,25.37
2022-08-29T10:54:51.240Z,25.71
2022-08-29T10:57:40.045Z,25.29
2022-08-29T11:00:22.298Z,25.65
2022-08-29T11:03:11.054Z,25.22
2022-08-29T11:05:55.245Z,25.48
2022-08-29T11:08:39.370Z,25.59
2022-08-29T11:11:05.938Z,26.11
2022-08-29T11:13:42.939Z,25.63
2022-08-29T11:16:32.086Z,25.61
2022-08-29T11:19:08.193Z,25.79
2022-08-29T11:21:42.597Z,25.76
2022-08-29T11:24:11.884Z,26.20
2022-08-29T11:26:48.472Z,25.57
2022-08-29T11:29:37.574Z,25.67
2022-08-29T11:32:23.052Z,25.83
2022-08-29T11:35:06.292Z,25.59
2022-08-29T11:38:04.678Z,25.96
2022-08-29T11:41:26.355Z,25.69
2022-08-29T11:43:40.129Z,26.34
2022-08-29T11:46:09.853Z,26.69
2022-08-29T11:48:39.029Z,26.18
2022-08-29T11:51:37.114Z,26.22
2022-08-29T11:54:41.595Z,26.79
2022-08-29T11:57:08.537Z,26.41
2022-08-29T11:59:48.449Z,26.78
2022-08-29T12:02:33.150Z,26.38
2022-08-29T12:05:00.909Z,26.49
2022-08-29T12:07:50.529Z,26.31
2022-08-29T12:10:20.030Z,26.48
2022-08-29T12:12:49.245Z,26.81
2022-08-29T12:15:32.841Z,26.75
2022-08-29T12:18:21.996Z,26.46
2022-08-29T12:20:55.718Z,26.42
2022-08-29T12:23:36.471Z,26.47
2022-08-29T12:26:58.018Z,26.43
2022-08-29T12:29:44.477Z,26.59
2022-08-29T12:32:41.451Z,27.08
2022-08-29T12:35:37.218Z,26.74
2022-08-29T12:38:42.286Z,26.50
2022-08-29T12:41:25.065Z,27.05
2022-08-29T12:43:56.438Z,27.01
2022-08-29T12:46:28.281Z,26.64
2022-08-29T12:49:08.569Z,26.85
2022-08-29T12:51:49.490Z,26.89
2022-08-29T12:54:27.775Z,27.25
2022-08-29T12:56:54.474Z,27.34
2022-08-29T12:59:21.151Z,27.50
2022-08-29T13:01:54.239Z,27.59
2022-08-29T13:04:25.725Z,27.36
2022-08-29T13:07:01.377Z,27.86
2022-08-29T13:09:39.359Z,27.82
2022-08-29T13:12:11.721Z,27.53
2022-08-29T13:14:48.683Z,27.56
2022-08-29T13:17:17.846Z,27.50
2022-08-29T13:20:21.566Z,27.33
2022-08-29T13:22:48.055Z,27.57
2022-08-29T13:25:17.125Z,27.56
2022-08-29T13:27:45.295Z,27.68
2022-08-29T13:30:22.457Z,27.66
2022-08-29T13:32:51.466Z,27.60
2022-08-29T13:35:28.074Z,27.56
2022-08-29T13:38:17.811Z,28.01
2022-08-29T13:40:52.746Z,27.88
2022-08-29T13:43:44.001Z,27.87
2022-08-29T13:46:15.176Z,27.96
2022-08-29T13:48:42.456Z,27.99
2022-08-29T13:51:09.261Z,28.20
2022-08-29T13:53:35.743Z,28.19
2022-08-29T13:56:02.695Z,28.17
2022-08-29T13:58:35.111Z,27.49
2022-08-29T14:01:29.236Z,27.86
2022-08-29T14:03:50.041Z,27.76
2022-08-29T14:06:21.720Z,28.01
2022-08-29T14:08:49.409Z,28.15
2022-08-29T14:11:15.935Z,28.06
2022-08-29T14:13:42.875Z,28.30
2022-08-29T14:16:12.304Z,28.54
2022-08-29T14:18:38.771Z,28.51
2022-08-29T14:21:05.459Z,28.45
2022-08-29T14:23:32.200Z,28.42
2022-08-29T14:25:58.722Z,28.36
2022-08-29T14:28:25.241Z,27.96
2022-08-29T14:30:52.386Z,27.99
2022-08-29T14:33:20.096Z,27.91
2022-08-29T14:35:46.697Z,28.24
2022-08-29T14:38:13.148Z,27.71
2022-08-29T14:40:39.691Z,27.93
2022-08-29T14:43:13.126Z,27.80
2022-08-29T14:45:39.910Z,27.82
2022-08-29T14:48:06.535Z,28.36
2022-08-29T14:50:33.265Z,28.46
2022-08-29T14:52:59.789Z,28.37
2022-08-29T14:55:26.310Z,28.28
2022-08-29T14:57:52.835Z,28.30
2022-08-29T15:00:22.417Z,28.44
2022-08-29T15:02:49.543Z,28.22
2022-08-29T15:05:16.299Z,28.43
2022-08-29T15:07:43.310Z,28.37
2022-08-29T15:10:11.615Z,28.09
2022-08-29T15:12:38.460Z,27.99
2022-08-29T15:15:05.379Z,27.89
2022-08-29T15:17:31.977Z,27.89
2022-08-29T15:22:45.136Z,28.04
2022-08-29T15:25:11.802Z,28.06
2022-08-29T15:27:38.214Z,27.93
2022-08-29T15:30:05.915Z,27.71
2022-08-29T15:32:34.471Z,27.95
2022-08-29T15:35:00.899Z,27.96
2022-08-29T15:37:27.400Z,28.04
2022-08-29T15:39:54.903Z,27.71
2022-08-29T15:42:28.409Z,27.87
2022-08-29T15:44:55.375Z,27.92
2022-08-29T15:47:21.790Z,28.11
2022-08-29T15:49:53.082Z,27.71
2022-08-29T15:52:19.539Z,27.68
2022-08-29T15:54:46.194Z,27.73
2022-08-29T15:57:12.825Z,27.97
2022-08-29T15:59:57.101Z,28.14
2022-08-29T16:02:24.456Z,28.20
2022-08-29T16:04:54.815Z,27.95
2022-08-29T16:07:25.372Z,27.89
2022-08-29T16:09:56.519Z,28.09
2022-08-29T16:12:22.943Z,28.24
2022-08-29T16:15:09.109Z,27.84
2022-08-29T16:17:36.227Z,27.80
2022-08-29T16:20:04.166Z,27.47
2022-08-29T16:22:30.692Z,27.32
2022-08-29T16:24:57.964Z,27.29
2022-08-29T16:27:24.671Z,27.60
2022-08-29T16:29:52.613Z,27.65
2022-08-29T16:32:19.427Z,27.43
2022-08-29T16:34:45.873Z,27.48
2022-08-29T16:37:12.477Z,27.62
2022-08-29T16:39:38.891Z,27.61
2022-08-29T16:42:05.560Z,27.59
2022-08-29T16:44:33.170Z,27.52
2022-08-29T16:47:01.856Z,27.67
2022-08-29T16:49:28.387Z,27.75
2022-08-29T16:51:54.840Z,27.65
2022-08-29T16:54:21.266Z,27.50
2022-08-29T16:56:47.751Z,27.30
2022-08-29T16:59:14.418Z,27.30
2022-08-29T17:01:50.380Z,27.43
2022-08-29T17:04:25.448Z,27.30
2022-08-29T17:06:52.395Z,27.21
2022-08-29T17:09:21.781Z,27.39
2022-08-29T17:11:49.526Z,27.24
2022-08-29T17:14:18.289Z,27.19
2022-08-29T17:16:47.074Z,27.20
2022-08-29T17:19:15.009Z,27.12
2022-08-29T17:21:42.367Z,27.04
2022-08-29T17:24:09.361Z,27.04
2022-08-29T17:26:40.728Z,26.95
2022-08-29T17:29:08.605Z,26.89
2022-08-29T17:31:38.437Z,26.88
2022-08-29T17:34:06.944Z,26.87
2022-08-29T17:36:36.409Z,26.81
2022-08-29T17:39:04.482Z,26.75
2022-08-29T17:41:31.216Z,26.98
2022-08-29T17:43:59.321Z,26.80
2022-08-29T17:46:25.852Z,26.60
2022-08-29T17:48:52.482Z,26.34
2022-08-29T17:51:18.934Z,25.79
2022-08-29T17:53:46.310Z,25.73
2022-08-29T17:56:16.357Z,25.43
2022-08-29T17:58:43.343Z,25.33
2022-08-29T18:01:15.946Z,25.28
2022-08-29T18:03:44.449Z,25.48
2022-08-29T18:06:12.459Z,25.49
2022-08-29T18:08:41.714Z,25.32
2022-08-29T18:11:11.995Z,25.00
2022-08-29T18:13:38.797Z,25.14
2022-08-29T18:16:05.304Z,25.10
2022-08-29T18:18:32.592Z,24.82
2022-08-29T18:20:59.051Z,24.48
2022-08-29T18:23:25.592Z,24.56
2022-08-29T18:25:52.061Z,24.62
2022-08-29T18:28:19.571Z,24.37
2022-08-29T18:30:46.269Z,24.21
2022-08-29T18:33:13.394Z,24.18
2022-08-29T18:35:40.218Z,24.20
2022-08-29T18:38:07.782Z,24.26
2022-08-29T18:40:39.327Z,24.19
2022-08-29T18:43:06.631Z,24.05
2022-08-29T18:45:36.324Z,23.94
2022-08-29T18:48:03.214Z,23.81
2022-08-29T18:50:35.523Z,23.71
2022-08-29T18:53:07.753Z,23.42
2022-08-29T18:55:34.617Z,23.38
2022-08-29T18:58:01.083Z,23.33
2022-08-29T19:00:28.185Z,23.28
2022-08-29T19:02:56.868Z,23.34
2022-08-29T19:05:24.997Z,23.24
2022-08-29T19:07:52.482Z,23.07
2022-08-29T19:10:19.658Z,23.17
2022-08-29T19:12:46.742Z,22.99
2022-08-29T19:15:13.890Z,22.90
2022-08-29T19:17:40.643Z,22.80
2022-08-29T19:20:28.059Z,22.94
2022-08-29T19:22:54.481Z,22.78
2022-08-29T19:25:21.024Z,22.59
2022-08-29T19:27:47.770Z,22.66
2022-08-29T19:30:16.570Z,22.75
2022-08-29T19:32:43.358Z,22.76
2022-08-29T19:35:12.733Z,22.62
2022-08-29T19:37:40.899Z,22.59
2022-08-29T19:40:10.247Z,22.54
2022-08-29T19:42:37.875Z,22.52
2022-08-29T19:45:06.572Z,22.48
2022-08-29T19:47:33.219Z,22.35
2022-08-29T19:49:59.711Z,22.30
2022-08-29T19:52:26.576Z,22.28
2022-08-29T19:54:53.826Z,21.91
2022-08-29T19:57:20.247Z,22.05
2022-08-29T19:59:46.935Z,22.22
2022-08-29T20:02:15.277Z,22.07
2022-08-29T20:04:41.785Z,22.12
2022-08-29T20:07:09.327Z,22.34
2022-08-29T20:09:36.147Z,22.39
2022-08-29T20:12:04.993Z,22.47
2022-08-29T20:14:31.706Z,22.89
2022-08-29T20:16:59.037Z,22.55
2022-08-29T20:19:26.288Z,22.25
2022-08-29T20:21:52.813Z,22.34
2022-08-29T20:24:19.515Z,22.40
2022-08-29T20:26:47.971Z,22.57
2022-08-29T20:29:16.927Z,22.48
2022-08-29T20:31:44.125Z,22.55
2022-08-29T20:34:11.353Z,22.33
2022-08-29T20:36:55.989Z,22.23
2022-08-29T20:39:22.610Z,22.14
2022-08-29T20:41:50.761Z,22.07
2022-08-29T20:44:20.272Z,22.06
2022-08-29T20:46:47.874Z,21.98
2022-08-29T20:49:17.591Z,22.04
2022-08-29T20:51:44.417Z,21.79
2022-08-29T20:54:13.156Z,21.69
2022-08-29T20:56:40.222Z,21.62
2022-08-29T20:59:07.117Z,21.50
2022-08-29T21:01:35.829Z,21.44
2022-08-29T21:04:23.418Z,21.06
2022-08-29T21:06:57.672Z,20.83
2022-08-29T21:09:24.657Z,20.64
2022-08-29T21:11:52.208Z,20.66
2022-08-29T21:14:22.249Z,20.35
2022-08-29T21:16:50.464Z,20.31
2022-08-29T21:19:18.693Z,20.23
2022-08-29T21:21:45.356Z,20.22
2022-08-29T21:24:12.057Z,20.32
2022-08-29T21:26:39.426Z,20.11
2022-08-29T21:29:07.564Z,20.17
2022-08-29T21:31:35.321Z,20.04
2022-08-29T21:34:06.330Z,20.07
2022-08-29T21:36:36.040Z,20.09
2022-08-29T21:39:04.478Z,20.09
2022-08-29T21:41:31.714Z,20.16
2022-08-29T21:43:58.360Z,19.90
2022-08-29T21:46:26.813Z,19.64
2022-08-29T21:48:56.667Z,19.76
2022-08-29T21:51:23.815Z,19.57
2022-08-29T21:53:52.498Z,19.67
2022-08-29T21:56:19.081Z,19.40
2022-08-29T21:58:49.674Z,19.26
2022-08-29T22:01:16.378Z,19.41
2022-08-29T22:03:42.781Z,19.20
2022-08-29T22:06:09.282Z,19.06
2022-08-29T22:08:37.792Z,19.02
2022-08-29T22:11:22.530Z,19.14
2022-08-29T22:13:50.891Z,18.97
2022-08-29T22:16:29.993Z,18.87
2022-08-29T22:19:05.266Z,18.84
2022-08-29T22:21:35.485Z,18.85
2022-08-29T22:24:02.507Z,18.50
2022-08-29T22:26:29.247Z,18.73
2022-08-29T22:28:55.921Z,18.67
2022-08-29T22:31:23.002Z,18.49
2022-08-29T22:33:50.826Z,18.58
2022-08-29T22:36:19.136Z,18.32
2022-08-29T22:38:47.698Z,18.37
2022-08-29T22:41:22.036Z,18.26
2022-08-29T22:44:16.472Z,18.10
2022-08-29T22:46:43.284Z,17.97
2022-08-29T22:49:10.163Z,18.18
2022-08-29T22:51:36.699Z,18.22
2022-08-29T22:54:21.755Z,18.04
2022-08-29T22:56:48.432Z,17.86
2022-08-29T22:59:15.265Z,18.16
2022-08-29T23:01:43.994Z,17.80
2022-08-29T23:04:11.095Z,18.00
2022-08-29T23:06:38.168Z,18.00
2022-08-29T23:09:05.587Z,17.71
2022-08-29T23:11:32.590Z,17.58
2022-08-29T23:13:59.516Z,17.88
2022-08-29T23:16:26.294Z,17.52
2022-08-29T23:18:53.320Z,17.48
2022-08-29T23:21:22.716Z,17.88
2022-08-29T23:23:50.666Z,17.83
2022-08-29T23:26:17.784Z,17.48
2022-08-29T23:28:44.311Z,17.39
2022-08-29T23:31:11.080Z,17.59
2022-08-29T23:33:37.583Z,17.46
2022-08-29T23:36:04.394Z,17.41
2022-08-29T23:38:31.043Z,17.11
2022-08-29T23:40:58.212Z,17.18
2022-08-29T23:43:27.744Z,17.14
2022-08-29T23:45:55.619Z,17.34
2022-08-29T23:48:26.060Z,17.19
2022-08-29T23:50:53.313Z,17.27
2022-08-29T23:53:21.252Z,16.97
2022-08-29T23:55:48.415Z,17.00
2022-08-29T23:58:14.973Z,17.01
